Ana Sayfa
METAR-TAF:

METAR-TAF

Havaalanları :

Okmulgee, Oklahoma, Amerika Birleşik Devletleri

Enlem: 35-40-05N, Boylam: 095-56-55W, yükseklik: 220 m

Güncel hava durumu gözlemi

Rapor saat 18:55 UTC de 34 dakika önce yapıldı.
Rüzgar batı/kuzeybatıdan 6 kt ve 18 kt'a kadar ani rüzgarlar
Sıcaklık 12°C
Nem 76%
Basınç 1003 hPa
Görüş mesafesi: 16.1 km
1600 ft yükseklikte çok bulutlu

METAR: KOKM 241855Z AUTO 29006G18KT 10SM OVC016 12/08 A2963 RMK AO2 T01170075

Saat: 13:29 (19:29 UTC)


TAF: eksik

4.000'den fazla havaalanı için hava durumu gözlemleri ve tahminleri (METAR ve TAF raporları).

Kullanılabilir istasyonlar harita üzerinde sarı ve kırmızı noktalarla gösterilir.

İstasyonun adını görmek için fareyi noktanın üzerinde gezdirin.

Sonrasında hava gözlem ve tahminlerini görmek için tıklayın.

Haritayı değiştirmek için: yaklaştırmak için siyah artı işaretli yeşil düğmeye ve uzaklaştırmak için de eksi işaretli düğmeye hızla tıklayın; bitişik haritalar için yeşil okları kullanın.


METAR-TAF: